sensor_id;sensor_type;location;lat;lon;timestamp;P1;durP1;ratioP1;P2;durP2;ratioP2
5678;SDS011;2862;52.560;13.566;2023-07-20T00:01:46;18.63;;;3.83;;
5678;SDS011;2862;52.560;13.566;2023-07-20T00:11:49;17.23;;;3.20;;
5678;SDS011;2862;52.560;13.566;2023-07-20T00:21:54;20.53;;;4.20;;
5678;SDS011;2862;52.560;13.566;2023-07-20T00:31:58;20.60;;;4.30;;
5678;SDS011;2862;52.560;13.566;2023-07-20T00:42:02;21.17;;;3.67;;
5678;SDS011;2862;52.560;13.566;2023-07-20T00:52:06;19.33;;;5.37;;
5678;SDS011;2862;52.560;13.566;2023-07-20T01:02:11;19.67;;;4.90;;
5678;SDS011;2862;52.560;13.566;2023-07-20T01:12:18;22.90;;;6.70;;
5678;SDS011;2862;52.560;13.566;2023-07-20T01:22:38;21.30;;;6.23;;
5678;SDS011;2862;52.560;13.566;2023-07-20T01:32:57;19.73;;;4.50;;
5678;SDS011;2862;52.560;13.566;2023-07-20T01:43:01;19.57;;;3.60;;
5678;SDS011;2862;52.560;13.566;2023-07-20T01:53:06;21.33;;;4.50;;
5678;SDS011;2862;52.560;13.566;2023-07-20T02:03:09;23.67;;;8.70;;
5678;SDS011;2862;52.560;13.566;2023-07-20T02:13:15;23.83;;;5.47;;
5678;SDS011;2862;52.560;13.566;2023-07-20T02:23:18;22.47;;;7.50;;
5678;SDS011;2862;52.560;13.566;2023-07-20T02:33:22;21.43;;;7.73;;
5678;SDS011;2862;52.560;13.566;2023-07-20T02:43:25;20.57;;;7.00;;
5678;SDS011;2862;52.560;13.566;2023-07-20T02:53:30;24.57;;;8.57;;
5678;SDS011;2862;52.560;13.566;2023-07-20T03:03:32;19.37;;;6.40;;
5678;SDS011;2862;52.560;13.566;2023-07-20T03:13:41;20.20;;;6.90;;
5678;SDS011;2862;52.560;13.566;2023-07-20T03:23:44;30.50;;;10.50;;
5678;SDS011;2862;52.560;13.566;2023-07-20T03:33:49;27.37;;;10.13;;
5678;SDS011;2862;52.560;13.566;2023-07-20T03:43:52;26.27;;;9.80;;
5678;SDS011;2862;52.560;13.566;2023-07-20T03:53:57;28.70;;;11.60;;
5678;SDS011;2862;52.560;13.566;2023-07-20T04:04:01;26.73;;;11.60;;
5678;SDS011;2862;52.560;13.566;2023-07-20T04:14:05;31.10;;;12.07;;
5678;SDS011;2862;52.560;13.566;2023-07-20T04:24:08;33.40;;;12.20;;
5678;SDS011;2862;52.560;13.566;2023-07-20T04:34:13;30.00;;;11.67;;
5678;SDS011;2862;52.560;13.566;2023-07-20T04:44:18;29.10;;;12.10;;
5678;SDS011;2862;52.560;13.566;2023-07-20T04:54:23;32.27;;;11.83;;
5678;SDS011;2862;52.560;13.566;2023-07-20T05:04:29;26.50;;;10.80;;
5678;SDS011;2862;52.560;13.566;2023-07-20T05:14:39;29.70;;;13.30;;
5678;SDS011;2862;52.560;13.566;2023-07-20T05:24:43;25.60;;;10.60;;
5678;SDS011;2862;52.560;13.566;2023-07-20T05:34:47;20.87;;;6.77;;
5678;SDS011;2862;52.560;13.566;2023-07-20T05:44:53;21.10;;;6.90;;
5678;SDS011;2862;52.560;13.566;2023-07-20T05:54:58;19.50;;;4.93;;
5678;SDS011;2862;52.560;13.566;2023-07-20T06:05:01;19.07;;;3.40;;
5678;SDS011;2862;52.560;13.566;2023-07-20T06:15:16;18.60;;;5.53;;
5678;SDS011;2862;52.560;13.566;2023-07-20T06:25:27;19.83;;;4.63;;
5678;SDS011;2862;52.560;13.566;2023-07-20T06:35:31;15.97;;;2.70;;
5678;SDS011;2862;52.560;13.566;2023-07-20T06:45:34;14.73;;;1.13;;
5678;SDS011;2862;52.560;13.566;2023-07-20T06:55:39;25.23;;;7.53;;
5678;SDS011;2862;52.560;13.566;2023-07-20T07:05:42;23.03;;;4.70;;
5678;SDS011;2862;52.560;13.566;2023-07-20T07:15:52;21.70;;;6.60;;
5678;SDS011;2862;52.560;13.566;2023-07-20T07:25:55;18.43;;;0.70;;
5678;SDS011;2862;52.560;13.566;2023-07-20T07:35:59;15.00;;;1.33;;
5678;SDS011;2862;52.560;13.566;2023-07-20T07:46:02;19.10;;;4.83;;
5678;SDS011;2862;52.560;13.566;2023-07-20T07:56:07;26.83;;;11.80;;
5678;SDS011;2862;52.560;13.566;2023-07-20T08:06:10;13.77;;;1.40;;
5678;SDS011;2862;52.560;13.566;2023-07-20T08:16:16;15.53;;;3.40;;
5678;SDS011;2862;52.560;13.566;2023-07-20T08:26:19;15.90;;;0.80;;
5678;SDS011;2862;52.560;13.566;2023-07-20T08:36:25;18.53;;;2.80;;
5678;SDS011;2862;52.560;13.566;2023-07-20T08:46:29;12.80;;;0.20;;
5678;SDS011;2862;52.560;13.566;2023-07-20T08:56:33;12.37;;;0.30;;
5678;SDS011;2862;52.560;13.566;2023-07-20T09:06:37;20.27;;;5.50;;
5678;SDS011;2862;52.560;13.566;2023-07-20T09:16:50;11.53;;;0.20;;
5678;SDS011;2862;52.560;13.566;2023-07-20T09:26:57;12.90;;;0.30;;
5678;SDS011;2862;52.560;13.566;2023-07-20T09:37:07;12.50;;;0.20;;
5678;SDS011;2862;52.560;13.566;2023-07-20T09:47:10;12.77;;;0.20;;
5678;SDS011;2862;52.560;13.566;2023-07-20T09:57:14;15.13;;;1.00;;
5678;SDS011;2862;52.560;13.566;2023-07-20T10:07:17;37.03;;;17.00;;
5678;SDS011;2862;52.560;13.566;2023-07-20T10:17:25;32.53;;;2.83;;
5678;SDS011;2862;52.560;13.566;2023-07-20T10:27:28;17.23;;;1.60;;
5678;SDS011;2862;52.560;13.566;2023-07-20T10:37:49;12.10;;;0.20;;
5678;SDS011;2862;52.560;13.566;2023-07-20T10:47:54;13.60;;;0.50;;
5678;SDS011;2862;52.560;13.566;2023-07-20T10:58:07;12.97;;;0.30;;
5678;SDS011;2862;52.560;13.566;2023-07-20T11:08:11;12.80;;;0.30;;
5678;SDS011;2862;52.560;13.566;2023-07-20T11:18:16;15.10;;;0.30;;
5678;SDS011;2862;52.560;13.566;2023-07-20T11:28:20;18.90;;;0.30;;
5678;SDS011;2862;52.560;13.566;2023-07-20T11:38:24;13.40;;;0.30;;
5678;SDS011;2862;52.560;13.566;2023-07-20T11:48:27;15.10;;;0.57;;
5678;SDS011;2862;52.560;13.566;2023-07-20T11:58:32;16.50;;;0.30;;
5678;SDS011;2862;52.560;13.566;2023-07-20T12:08:37;12.03;;;0.20;;
5678;SDS011;2862;52.560;13.566;2023-07-20T12:18:42;13.60;;;0.20;;
5678;SDS011;2862;52.560;13.566;2023-07-20T12:28:45;11.90;;;0.20;;
5678;SDS011;2862;52.560;13.566;2023-07-20T12:38:49;12.63;;;0.30;;
5678;SDS011;2862;52.560;13.566;2023-07-20T12:48:52;12.13;;;0.20;;
5678;SDS011;2862;52.560;13.566;2023-07-20T12:58:56;11.80;;;0.20;;
5678;SDS011;2862;52.560;13.566;2023-07-20T13:08:59;16.10;;;0.20;;
5678;SDS011;2862;52.560;13.566;2023-07-20T13:19:03;11.80;;;0.20;;
5678;SDS011;2862;52.560;13.566;2023-07-20T13:29:06;12.53;;;0.20;;
5678;SDS011;2862;52.560;13.566;2023-07-20T13:39:10;11.73;;;0.20;;
5678;SDS011;2862;52.560;13.566;2023-07-20T13:49:13;27.30;;;9.10;;
5678;SDS011;2862;52.560;13.566;2023-07-20T13:59:24;15.00;;;0.30;;
5678;SDS011;2862;52.560;13.566;2023-07-20T14:09:27;12.90;;;0.30;;
5678;SDS011;2862;52.560;13.566;2023-07-20T14:19:32;19.20;;;1.03;;
5678;SDS011;2862;52.560;13.566;2023-07-20T14:29:34;14.00;;;0.77;;
5678;SDS011;2862;52.560;13.566;2023-07-20T14:39:39;14.00;;;0.40;;
5678;SDS011;2862;52.560;13.566;2023-07-20T14:49:41;14.00;;;0.20;;
5678;SDS011;2862;52.560;13.566;2023-07-20T14:59:46;12.20;;;0.20;;
5678;SDS011;2862;52.560;13.566;2023-07-20T15:09:49;13.03;;;0.40;;
5678;SDS011;2862;52.560;13.566;2023-07-20T15:19:53;12.00;;;0.20;;
5678;SDS011;2862;52.560;13.566;2023-07-20T15:29:56;13.30;;;0.60;;
5678;SDS011;2862;52.560;13.566;2023-07-20T15:40:01;12.17;;;0.30;;
5678;SDS011;2862;52.560;13.566;2023-07-20T15:50:06;12.97;;;0.50;;
5678;SDS011;2862;52.560;13.566;2023-07-20T16:00:11;13.70;;;0.83;;
5678;SDS011;2862;52.560;13.566;2023-07-20T16:10:14;16.33;;;0.20;;
5678;SDS011;2862;52.560;13.566;2023-07-20T16:20:18;14.60;;;0.50;;
5678;SDS011;2862;52.560;13.566;2023-07-20T16:30:21;16.73;;;2.97;;
5678;SDS011;2862;52.560;13.566;2023-07-20T16:40:26;14.10;;;0.40;;
5678;SDS011;2862;52.560;13.566;2023-07-20T16:50:31;13.77;;;0.47;;
5678;SDS011;2862;52.560;13.566;2023-07-20T17:00:36;17.50;;;0.70;;
5678;SDS011;2862;52.560;13.566;2023-07-20T17:10:40;17.50;;;2.30;;
5678;SDS011;2862;52.560;13.566;2023-07-20T17:20:44;19.30;;;2.60;;
5678;SDS011;2862;52.560;13.566;2023-07-20T17:30:57;15.03;;;0.30;;
5678;SDS011;2862;52.560;13.566;2023-07-20T17:41:02;15.03;;;0.40;;
5678;SDS011;2862;52.560;13.566;2023-07-20T17:51:06;18.70;;;1.97;;
5678;SDS011;2862;52.560;13.566;2023-07-20T18:01:10;14.37;;;0.30;;
5678;SDS011;2862;52.560;13.566;2023-07-20T18:11:12;17.73;;;1.90;;
5678;SDS011;2862;52.560;13.566;2023-07-20T18:21:16;25.30;;;0.77;;
5678;SDS011;2862;52.560;13.566;2023-07-20T18:31:19;21.00;;;4.80;;
5678;SDS011;2862;52.560;13.566;2023-07-20T18:41:24;25.40;;;4.70;;
5678;SDS011;2862;52.560;13.566;2023-07-20T18:51:27;20.53;;;3.73;;
5678;SDS011;2862;52.560;13.566;2023-07-20T19:01:32;17.77;;;1.40;;
5678;SDS011;2862;52.560;13.566;2023-07-20T19:11:35;13.77;;;0.30;;
5678;SDS011;2862;52.560;13.566;2023-07-20T19:21:42;15.50;;;0.70;;
5678;SDS011;2862;52.560;13.566;2023-07-20T19:31:44;15.10;;;0.63;;
5678;SDS011;2862;52.560;13.566;2023-07-20T19:41:48;16.20;;;1.17;;
5678;SDS011;2862;52.560;13.566;2023-07-20T19:51:55;21.80;;;0.80;;
5678;SDS011;2862;52.560;13.566;2023-07-20T20:02:00;20.50;;;2.07;;
5678;SDS011;2862;52.560;13.566;2023-07-20T20:12:05;19.77;;;0.60;;
5678;SDS011;2862;52.560;13.566;2023-07-20T20:22:10;15.90;;;0.40;;
5678;SDS011;2862;52.560;13.566;2023-07-20T20:32:13;14.27;;;0.40;;
5678;SDS011;2862;52.560;13.566;2023-07-20T20:42:17;14.63;;;0.70;;
5678;SDS011;2862;52.560;13.566;2023-07-20T20:52:21;14.10;;;0.23;;
5678;SDS011;2862;52.560;13.566;2023-07-20T21:02:31;14.90;;;0.30;;
5678;SDS011;2862;52.560;13.566;2023-07-20T21:12:36;18.87;;;2.37;;
5678;SDS011;2862;52.560;13.566;2023-07-20T21:22:41;15.90;;;0.40;;
5678;SDS011;2862;52.560;13.566;2023-07-20T21:32:45;19.63;;;2.87;;
5678;SDS011;2862;52.560;13.566;2023-07-20T21:42:49;15.33;;;0.50;;
5678;SDS011;2862;52.560;13.566;2023-07-20T21:52:53;18.40;;;1.40;;
5678;SDS011;2862;52.560;13.566;2023-07-20T22:02:57;16.33;;;0.50;;
5678;SDS011;2862;52.560;13.566;2023-07-20T22:13:00;15.37;;;0.50;;
5678;SDS011;2862;52.560;13.566;2023-07-20T22:23:06;15.50;;;0.90;;
5678;SDS011;2862;52.560;13.566;2023-07-20T22:33:09;15.67;;;0.43;;
5678;SDS011;2862;52.560;13.566;2023-07-20T22:43:13;18.10;;;1.03;;
5678;SDS011;2862;52.560;13.566;2023-07-20T22:53:16;18.67;;;1.77;;
5678;SDS011;2862;52.560;13.566;2023-07-20T23:03:21;17.80;;;1.33;;
5678;SDS011;2862;52.560;13.566;2023-07-20T23:13:24;20.13;;;2.27;;
5678;SDS011;2862;52.560;13.566;2023-07-20T23:23:30;18.10;;;1.63;;
5678;SDS011;2862;52.560;13.566;2023-07-20T23:33:34;16.00;;;0.73;;
5678;SDS011;2862;52.560;13.566;2023-07-20T23:43:39;18.90;;;1.03;;
5678;SDS011;2862;52.560;13.566;2023-07-20T23:53:42;16.97;;;0.50;;
